Time;durP1;ratioP1;P1;durP2;ratioP2;P2;SDS_P1;SDS_P2;PMS_P1;PMS_P2;Temp;Humidity;BMP_temperature;BMP_pressure;BME280_temperature;BME280_humidity;BME280_pressure;Samples;Min_cycle;Max_cycle;Signal;HPM_P1;HPM_P2
2022/12/09 00:00:33;;;;;;;;;;;;;;;7.62;100.00;98611.75;6092966;23;19967;-86
2022/12/09 00:02:59;;;;;;;;;;;;;;;7.62;100.00;98614.41;6090303;23;19917;-86
2022/12/09 00:05:24;;;;;;;;;;;;;;;7.61;100.00;98613.56;6091938;23;20294;-87
2022/12/09 00:07:49;;;;;;;;;;;;;;;7.61;100.00;98613.56;6194482;23;19962;-85
2022/12/09 00:10:15;;;;;;;;;;;;;;;7.61;100.00;98607.41;6092389;23;19996;-85
2022/12/09 00:12:40;;;;;;;;;;;;;;;7.60;100.00;98611.84;6193486;23;20288;-86
2022/12/09 00:15:08;;;;;;;;;;;;;;;7.62;100.00;98614.41;6092607;23;19909;-88
2022/12/09 00:17:33;;;;;;;;;;;;;;;7.61;100.00;98603.00;6090836;23;19967;-89
2022/12/09 00:19:59;;;;;;;;;;;;;;;7.62;100.00;98609.97;6091971;23;19935;-84
2022/12/09 00:22:27;;;;;;;;;;;;;;;7.62;100.00;98598.59;6091587;23;19914;-87
2022/12/09 00:24:53;;;;;;;;;;;;;;;7.62;100.00;98603.84;6093720;23;19913;-85
2022/12/09 00:27:18;;;;;;;;;;;;;;;7.61;100.00;98602.13;6092533;23;20292;-85
2022/12/09 00:29:43;;;;;;;;;;;;;;;7.61;100.00;98602.13;6093363;23;19920;-90
2022/12/09 00:32:09;;;;;;;;;;;;;;;7.61;100.00;98603.00;6092339;23;19909;-87
2022/12/09 00:34:34;;;;;;;;;;;;;;;7.62;100.00;98604.69;6090826;23;19913;-85
2022/12/09 00:36:59;;;;;;;;;;;;;;;7.63;100.00;98589.75;6091681;23;19987;-86
2022/12/09 00:39:34;;;;;;;;;;;;;;;7.65;100.00;98595.78;6091446;23;20309;-89
2022/12/09 00:42:00;;;;;;;;;;;;;;;7.63;100.00;98590.59;6091099;23;20317;-87
2022/12/09 00:44:25;;;;;;;;;;;;;;;7.62;100.00;98588.03;6093818;23;19944;-89
2022/12/09 00:46:50;;;;;;;;;;;;;;;7.63;100.00;98587.13;6093911;23;19945;-87
2022/12/09 00:49:15;;;;;;;;;;;;;;;7.63;100.00;98580.06;6091758;23;20342;-89
2022/12/09 00:51:52;;;;;;;;;;;;;;;7.64;100.00;98580.91;6195280;23;19914;-90
2022/12/09 00:54:20;;;;;;;;;;;;;;;7.64;100.00;98583.53;6093407;23;19935;-86
2022/12/09 00:56:45;;;;;;;;;;;;;;;7.66;100.00;98588.72;6093181;23;19972;-85
2022/12/09 00:59:10;;;;;;;;;;;;;;;7.65;100.00;98587.88;6194433;23;19914;-86
2022/12/09 01:01:36;;;;;;;;;;;;;;;7.64;100.00;98575.63;6092697;23;19943;-91
2022/12/09 01:04:01;;;;;;;;;;;;;;;7.65;100.00;98582.63;6091749;23;19920;-84
2022/12/09 01:06:26;;;;;;;;;;;;;;;7.65;100.00;98579.97;6091158;23;20250;-84
2022/12/09 01:08:52;;;;;;;;;;;;;;;7.66;100.00;98579.06;6093013;23;19949;-84
2022/12/09 01:11:19;;;;;;;;;;;;;;;7.66;100.00;98573.78;6091732;23;19940;-83
2022/12/09 01:13:44;;;;;;;;;;;;;;;7.64;100.00;98576.50;6091555;23;19929;-84
2022/12/09 01:16:14;;;;;;;;;;;;;;;7.67;100.00;98579.91;6093269;23;19918;-85
2022/12/09 01:18:39;;;;;;;;;;;;;;;7.64;100.00;98579.13;6193331;23;19989;-83
2022/12/09 01:21:04;;;;;;;;;;;;;;;7.65;100.00;98572.06;6093056;23;19913;-82
2022/12/09 01:23:29;;;;;;;;;;;;;;;7.67;100.00;98572.00;6092747;23;19920;-85
2022/12/09 01:25:55;;;;;;;;;;;;;;;7.69;100.00;98576.28;6093706;23;20249;-84
2022/12/09 01:28:20;;;;;;;;;;;;;;;7.69;100.00;98572.75;6093987;23;19992;-86
2022/12/09 01:30:45;;;;;;;;;;;;;;;7.68;100.00;98569.28;6092756;23;19913;-84
2022/12/09 03:15:12;;;;;;;;;;;;;;;7.73;100.00;98476.75;6205934;22;19948;-85
2022/12/09 03:17:40;;;;;;;;;;;;;;;7.72;100.00;98478.56;6278550;22;20291;-84
2022/12/09 03:20:08;;;;;;;;;;;;;;;7.73;100.00;98479.41;6278623;22;20052;-87
2022/12/09 03:22:34;;;;;;;;;;;;;;;7.73;100.00;98471.50;6278418;22;20231;-84
2022/12/09 03:25:02;;;;;;;;;;;;;;;7.73;100.00;98471.50;6278795;22;19912;-89
2022/12/09 03:27:32;;;;;;;;;;;;;;;7.73;100.00;98476.75;6278779;22;19908;-86
2022/12/09 03:30:01;;;;;;;;;;;;;;;7.71;100.00;98476.84;6275225;22;19915;-86
2022/12/09 03:32:27;;;;;;;;;;;;;;;7.75;100.00;98467.81;6278540;22;19938;-90
2022/12/09 03:34:57;;;;;;;;;;;;;;;7.75;100.00;98464.34;6278448;22;19914;-86
2022/12/09 03:37:23;;;;;;;;;;;;;;;7.75;100.00;98465.19;6277034;22;19911;-84
2022/12/09 03:39:50;;;;;;;;;;;;;;;7.75;100.00;98464.34;6278456;22;20238;-86
2022/12/09 03:42:19;;;;;;;;;;;;;;;7.75;100.00;98461.72;6278833;22;19919;-85
2022/12/09 03:44:52;;;;;;;;;;;;;;;7.77;100.00;98465.97;6275539;22;19958;-85
2022/12/09 03:47:17;;;;;;;;;;;;;;;7.75;100.00;98465.19;6278659;22;20280;-85
2022/12/09 03:49:42;;;;;;;;;;;;;;;7.76;100.00;98458.16;6276561;22;19935;-86
2022/12/09 03:52:34;;;;;;;;;;;;;;;7.77;100.00;98462.47;6278705;22;19918;-85
2022/12/09 03:55:19;;;;;;;;;;;;;;;7.75;100.00;98457.28;6272000;22;19911;-87
2022/12/09 03:57:47;;;;;;;;;;;;;;;7.77;100.00;98467.75;6215656;22;19947;-83
2022/12/09 04:00:12;;;;;;;;;;;;;;;7.77;100.00;98470.38;6276499;22;19961;-82
2022/12/09 04:02:38;;;;;;;;;;;;;;;7.74;100.00;98466.13;6278831;22;19993;-82
2022/12/09 04:05:03;;;;;;;;;;;;;;;7.75;100.00;98467.81;6278122;22;19911;-82
2022/12/09 04:07:28;;;;;;;;;;;;;;;7.78;100.00;98467.66;6278215;22;20398;-83
2022/12/09 04:09:54;;;;;;;;;;;;;;;7.76;100.00;98464.25;6278053;22;19915;-83
2022/12/09 04:12:19;;;;;;;;;;;;;;;7.77;100.00;98468.63;6251218;22;20243;-82
2022/12/09 04:14:44;;;;;;;;;;;;;;;7.77;100.00;98465.97;6276257;22;19911;-83
2022/12/09 04:17:10;;;;;;;;;;;;;;;7.78;100.00;98458.91;6303448;22;19989;-83
2022/12/09 04:19:35;;;;;;;;;;;;;;;7.77;100.00;98463.34;6308988;22;19911;-83
2022/12/09 04:22:01;;;;;;;;;;;;;;;7.75;100.00;98465.19;6308810;22;19937;-83
2022/12/09 04:24:26;;;;;;;;;;;;;;;7.76;100.00;98476.59;6308940;22;19911;-83
2022/12/09 04:26:51;;;;;;;;;;;;;;;7.76;100.00;98469.53;6308930;22;19915;-85
2022/12/09 04:29:16;;;;;;;;;;;;;;;7.77;100.00;98465.97;6307248;22;19915;-91
2022/12/09 04:31:42;;;;;;;;;;;;;;;7.75;100.00;98457.28;6309092;22;20341;-92
2022/12/09 04:34:07;;;;;;;;;;;;;;;7.77;100.00;98457.19;6308839;22;19921;-89
2022/12/09 04:36:32;;;;;;;;;;;;;;;7.77;100.00;98449.28;6309013;22;19917;-90
2022/12/09 04:38:58;;;;;;;;;;;;;;;7.76;100.00;98451.09;6309210;22;19956;-89
2022/12/09 04:41:23;;;;;;;;;;;;;;;7.78;100.00;98445.72;6281576;22;20322;-90
2022/12/09 09:05:26;;;;;;;;;;;;;;;7.85;100.00;98390.88;6188746;22;2083478;-90
2022/12/09 09:07:52;;;;;;;;;;;;;;;7.83;100.00;98388.31;6308743;22;19986;-92
2022/12/09 09:10:17;;;;;;;;;;;;;;;7.81;100.00;98383.13;6308509;22;19993;-88
2022/12/09 09:12:42;;;;;;;;;;;;;;;7.81;100.00;98388.41;6308882;22;19911;-90
2022/12/09 09:15:08;;;;;;;;;;;;;;;7.81;100.00;98391.03;6281524;22;20315;-90
2022/12/09 09:17:33;;;;;;;;;;;;;;;7.80;100.00;98393.75;6308981;22;19917;-92
2022/12/09 09:19:58;;;;;;;;;;;;;;;7.82;100.00;98391.91;6279679;22;19918;-90
2022/12/09 09:22:26;;;;;;;;;;;;;;;7.84;100.00;98386.56;6280911;22;19937;-88
2022/12/09 09:24:52;;;;;;;;;;;;;;;7.84;100.00;98387.38;6308391;22;20333;-87
2022/12/09 09:27:18;;;;;;;;;;;;;;;7.83;100.00;98383.03;6281232;22;19918;-89
2022/12/09 09:29:43;;;;;;;;;;;;;;;7.84;100.00;98376.00;6308349;22;19911;-91
2022/12/09 09:32:08;;;;;;;;;;;;;;;7.82;100.00;98384.84;6308512;22;19957;-90
2022/12/09 09:34:36;;;;;;;;;;;;;;;7.84;100.00;98391.81;6305491;22;19922;-86
2022/12/09 09:37:01;;;;;;;;;;;;;;;7.85;100.00;98390.88;6278004;22;19967;-89
2022/12/09 09:39:26;;;;;;;;;;;;;;;7.84;100.00;98391.81;6276881;22;19982;-88
2022/12/09 09:41:56;;;;;;;;;;;;;;;7.84;100.00;98389.19;6305721;22;19911;-93
2022/12/09 09:44:33;;;;;;;;;;;;;;;7.86;100.00;98389.94;6308495;22;20238;-92
2022/12/09 09:46:59;;;;;;;;;;;;;;;7.85;100.00;98393.50;6307859;22;20322;-89
2022/12/09 09:49:32;;;;;;;;;;;;;;;7.86;100.00;98395.22;6307029;22;19915;-93
2022/12/09 09:52:02;;;;;;;;;;;;;;;7.88;100.00;98390.72;6308570;22;19915;-90
2022/12/09 09:54:27;;;;;;;;;;;;;;;7.88;100.00;98390.72;6281165;22;19918;-84
2022/12/09 09:56:55;;;;;;;;;;;;;;;7.88;100.00;98385.44;6308503;22;19911;-93
2022/12/09 09:59:30;;;;;;;;;;;;;;;7.88;100.00;98382.78;6281027;22;19911;-84
2022/12/09 10:02:10;;;;;;;;;;;;;;;7.87;100.00;98387.22;6307722;22;19918;-90
2022/12/09 10:04:41;;;;;;;;;;;;;;;7.87;100.00;98379.31;6278716;22;19914;-87
2022/12/09 10:07:14;;;;;;;;;;;;;;;7.88;100.00;98382.78;6280684;22;19972;-90
2022/12/09 10:10:11;;;;;;;;;;;;;;;7.86;100.00;98380.25;6280926;22;19914;-87
2022/12/09 10:12:56;;;;;;;;;;;;;;;7.88;100.00;98377.53;6197857;22;19915;-87
2022/12/09 10:15:26;;;;;;;;;;;;;;;7.90;100.00;98375.69;6281052;22;19911;-88
2022/12/09 10:17:52;;;;;;;;;;;;;;;7.89;100.00;98373.97;6308130;22;19907;-90
2022/12/09 10:20:26;;;;;;;;;;;;;;;7.89;100.00;98376.59;6271907;22;19919;-91
2022/12/09 10:22:51;;;;;;;;;;;;;;;7.89;100.00;98374.81;6308044;22;19973;-89
2022/12/09 10:25:21;;;;;;;;;;;;;;;7.88;100.00;98372.25;6280556;22;20326;-88
2022/12/09 10:27:49;;;;;;;;;;;;;;;7.89;100.00;98366.06;6280285;22;20331;-88
2022/12/09 10:30:17;;;;;;;;;;;;;;;7.89;100.00;98369.53;6308363;22;19940;-86
2022/12/09 10:32:43;;;;;;;;;;;;;;;7.89;100.00;98363.41;6307839;22;19914;-87
2022/12/09 10:35:18;;;;;;;;;;;;;;;7.89;100.00;98364.25;6306136;22;19910;-87
2022/12/09 10:37:44;;;;;;;;;;;;;;;7.89;100.00;98355.50;6308472;22;20267;-91
2022/12/09 10:40:09;;;;;;;;;;;;;;;7.91;100.00;98350.97;6307942;22;19950;-91
2022/12/09 10:45:33;;;;;;;;;;;;;;;7.88;100.00;98346.75;6307935;22;19965;-90
2022/12/09 10:47:58;;;;;;;;;;;;;;;7.90;100.00;98344.88;6279794;22;19915;-92
2022/12/09 10:50:30;;;;;;;;;;;;;;;7.90;100.00;98338.75;6306514;22;20055;-87
2022/12/09 10:52:56;;;;;;;;;;;;;;;7.93;100.00;98336.78;6308121;22;19915;-87
2022/12/09 10:55:33;;;;;;;;;;;;;;;7.91;100.00;98340.44;6308074;22;19918;-89
2022/12/09 10:58:14;;;;;;;;;;;;;;;7.89;100.00;98337.03;6307936;22;19910;-95
2022/12/09 11:00:39;;;;;;;;;;;;;;;7.90;100.00;98339.59;6307871;22;19939;-93
2022/12/09 11:03:22;;;;;;;;;;;;;;;7.92;100.00;98334.22;6279859;22;19964;-88
2022/12/09 11:05:53;;;;;;;;;;;;;;;7.89;100.00;98337.03;6307318;22;19921;-90
2022/12/09 11:08:22;;;;;;;;;;;;;;;7.90;100.00;98333.47;6308237;22;19918;-88
2022/12/09 11:10:48;;;;;;;;;;;;;;;7.91;100.00;98329.88;6280272;22;19917;-89
2022/12/09 11:13:15;;;;;;;;;;;;;;;7.91;100.00;98330.72;6279998;22;19918;-87
2022/12/09 11:15:48;;;;;;;;;;;;;;;7.91;100.00;98324.59;6280281;22;19911;-91
2022/12/09 11:18:13;;;;;;;;;;;;;;;7.92;100.00;98321.03;6276671;22;19915;-88
2022/12/09 11:20:39;;;;;;;;;;;;;;;7.92;100.00;98318.41;6307474;22;20326;-92
2022/12/09 11:23:10;;;;;;;;;;;;;;;7.92;100.00;98321.03;6307209;22;20314;-89
2022/12/09 11:25:35;;;;;;;;;;;;;;;7.92;100.00;98326.31;6309747;22;20280;-87
2022/12/09 11:28:02;;;;;;;;;;;;;;;7.93;100.00;98320.09;6309148;22;20364;-87
2022/12/09 11:30:33;;;;;;;;;;;;;;;7.92;100.00;98316.63;6308561;22;19915;-88
2022/12/09 11:32:59;;;;;;;;;;;;;;;7.91;100.00;98311.41;6309978;22;19949;-86
2022/12/09 11:35:29;;;;;;;;;;;;;;;7.92;100.00;98308.69;6308288;22;19915;-90
2022/12/09 11:37:55;;;;;;;;;;;;;;;7.93;100.00;98301.63;6309386;22;19922;-87
2022/12/09 11:40:22;;;;;;;;;;;;;;;7.91;100.00;98307.00;6309586;22;19911;-86
2022/12/09 11:42:49;;;;;;;;;;;;;;;7.91;100.00;98298.22;6309177;22;19911;-88
2022/12/09 11:45:21;;;;;;;;;;;;;;;7.93;100.00;98301.63;6302160;22;19946;-89
2022/12/09 11:47:47;;;;;;;;;;;;;;;7.93;100.00;98301.63;6308577;22;19911;-87
2022/12/09 11:50:16;;;;;;;;;;;;;;;7.95;100.00;98299.78;6308009;22;20339;-85
2022/12/09 11:58:38;;;;;;;;;;;;;;;7.95;100.00;98302.41;6111384;22;19925;-84
2022/12/09 12:01:10;;;;;;;;;;;;;;;7.95;100.00;98305.06;6225512;23;19951;-87
2022/12/09 12:03:40;;;;;;;;;;;;;;;7.96;100.00;98304.09;6223340;23;19995;-85
2022/12/09 12:06:15;;;;;;;;;;;;;;;7.94;100.00;98303.34;6123208;23;20325;-86
2022/12/09 12:08:59;;;;;;;;;;;;;;;7.93;100.00;98299.00;6123211;23;19920;-85
2022/12/09 12:11:30;;;;;;;;;;;;;;;7.93;100.00;98299.88;6123220;23;19913;-85
2022/12/09 12:14:02;;;;;;;;;;;;;;;7.94;100.00;98296.28;6225322;23;19913;-87
2022/12/09 12:16:42;;;;;;;;;;;;;;;7.95;100.00;98303.25;6225395;23;19920;-87
2022/12/09 12:19:08;;;;;;;;;;;;;;;7.95;100.00;98305.91;6224261;23;19919;-86
2022/12/09 12:21:45;;;;;;;;;;;;;;;7.94;100.00;98304.19;6122989;23;19945;-88
2022/12/09 12:24:21;;;;;;;;;;;;;;;7.96;100.00;98298.81;6122935;23;20321;-86
2022/12/09 12:26:57;;;;;;;;;;;;;;;7.96;100.00;98296.19;6123145;23;19937;-87
2022/12/09 12:29:34;;;;;;;;;;;;;;;7.96;100.00;98298.81;6122994;23;19939;-85
2022/12/09 12:31:59;;;;;;;;;;;;;;;7.96;100.00;98297.06;6122871;23;19913;-85
2022/12/09 12:34:34;;;;;;;;;;;;;;;7.95;100.00;98290.06;6120979;23;19921;-85
2022/12/09 12:37:05;;;;;;;;;;;;;;;7.93;100.00;98289.31;6122482;23;19916;-88
2022/12/09 12:39:42;;;;;;;;;;;;;;;7.96;100.00;98286.50;6225419;23;19913;-86
2022/12/09 12:42:24;;;;;;;;;;;;;;;7.97;100.00;98287.34;6122716;23;20368;-85
2022/12/09 12:47:46;;;;;;;;;;;;;;;7.94;100.00;98280.44;6122966;23;19935;-86
2022/12/09 12:50:22;;;;;;;;;;;;;;;7.96;100.00;98280.34;6121360;23;19913;-88
2022/12/09 12:53:02;;;;;;;;;;;;;;;7.95;100.00;98276.88;6123143;23;19995;-85
2022/12/09 12:55:46;;;;;;;;;;;;;;;7.96;100.00;98285.63;6123264;23;19920;-87
2022/12/09 12:58:30;;;;;;;;;;;;;;;7.97;100.00;98288.19;6122686;23;19924;-87
2022/12/09 13:01:14;;;;;;;;;;;;;;;7.95;100.00;98295.34;6122812;23;19920;-85
2022/12/09 13:03:46;;;;;;;;;;;;;;;7.96;100.00;98290.91;6223524;23;19913;-86
2022/12/09 13:06:15;;;;;;;;;;;;;;;7.98;100.00;98278.50;6122780;23;20324;-84
2022/12/09 13:08:40;;;;;;;;;;;;;;;7.97;100.00;98288.19;6122837;23;19917;-88
2022/12/09 13:11:28;;;;;;;;;;;;;;;7.97;100.00;98285.56;6122878;23;20325;-86
2022/12/09 13:13:56;;;;;;;;;;;;;;;7.95;100.00;98279.53;6122715;23;19917;-87
2022/12/09 13:16:30;;;;;;;;;;;;;;;7.98;100.00;98284.63;6122886;23;20276;-85
2022/12/09 13:19:13;;;;;;;;;;;;;;;7.98;100.00;98278.50;6121172;23;19917;-87
2022/12/09 13:21:39;;;;;;;;;;;;;;;7.97;100.00;98277.63;6122643;23;19917;-85
2022/12/09 13:24:07;;;;;;;;;;;;;;;7.98;100.00;98268.78;6123053;23;20000;-85
2022/12/09 13:26:59;;;;;;;;;;;;;;;7.99;100.00;98277.56;6224978;23;19913;-85
2022/12/09 13:29:38;;;;;;;;;;;;;;;7.98;100.00;98273.22;6167850;23;19924;-85
2022/12/09 13:32:12;;;;;;;;;;;;;;;7.99;100.00;98274.91;6122645;23;19941;-84
2022/12/09 13:34:45;;;;;;;;;;;;;;;8.00;100.00;98284.53;6222879;23;19913;-86
2022/12/09 13:37:29;;;;;;;;;;;;;;;7.98;100.00;98278.50;6224695;23;20333;-86
2022/12/09 13:39:55;;;;;;;;;;;;;;;7.98;100.00;98271.44;6224553;23;19913;-84
2022/12/09 13:45:15;;;;;;;;;;;;;;;7.98;100.00;98271.44;6122571;23;19923;-85
2022/12/09 13:47:40;;;;;;;;;;;;;;;7.99;100.00;98264.38;6122347;23;19913;-86
2022/12/09 13:50:20;;;;;;;;;;;;;;;7.98;100.00;98267.97;6120934;23;19970;-85
2022/12/09 13:52:48;;;;;;;;;;;;;;;7.98;100.00;98268.78;6122832;23;19996;-86
2022/12/09 13:55:18;;;;;;;;;;;;;;;8.00;100.00;98266.06;6224457;23;19958;-87
2022/12/09 13:57:49;;;;;;;;;;;;;;;8.00;100.00;98266.06;6223962;23;19917;-86
2022/12/09 14:00:16;;;;;;;;;;;;;;;8.01;100.00;98265.16;6122669;23;19959;-85
2022/12/09 14:02:50;;;;;;;;;;;;;;;8.00;100.00;98266.91;6224234;23;20317;-85
2022/12/09 14:05:25;;;;;;;;;;;;;;;7.98;100.00;98263.53;6222659;23;20472;-85
2022/12/09 14:07:53;;;;;;;;;;;;;;;7.98;100.00;98263.53;6122697;23;19921;-84
2022/12/09 14:10:38;;;;;;;;;;;;;;;8.01;100.00;98273.06;6122606;23;20258;-85
2022/12/09 14:13:03;;;;;;;;;;;;;;;7.99;100.00;98275.78;6217512;23;19962;-84
2022/12/09 14:15:28;;;;;;;;;;;;;;;8.00;100.00;98274.00;6224273;23;19941;-83
2022/12/09 14:17:58;;;;;;;;;;;;;;;8.01;100.00;98267.78;6122801;23;20233;-85
2022/12/09 14:20:28;;;;;;;;;;;;;;;8.02;100.00;98279.19;6222823;23;19913;-85
2022/12/09 14:23:09;;;;;;;;;;;;;;;8.04;100.00;98279.94;6122643;23;19920;-86
2022/12/09 14:25:35;;;;;;;;;;;;;;;8.03;100.00;98275.63;6122456;23;20357;-86
2022/12/09 14:28:09;;;;;;;;;;;;;;;8.04;100.00;98278.16;6223869;23;19920;-86
2022/12/09 14:30:53;;;;;;;;;;;;;;;8.05;100.00;98279.84;6122333;23;19920;-87
2022/12/09 14:33:27;;;;;;;;;;;;;;;8.03;100.00;98280.88;6222852;23;20304;-88
2022/12/09 14:36:13;;;;;;;;;;;;;;;8.27;100.00;98279.47;6223937;23;20236;-88
2022/12/09 14:38:53;;;;;;;;;;;;;;;8.07;100.00;98283.25;6122449;22;20249;-90
2022/12/09 14:41:29;;;;;;;;;;;;;;;8.03;100.00;98281.72;6122711;23;19917;-88
2022/12/09 14:44:20;;;;;;;;;;;;;;;8.02;100.00;98290.56;6223924;23;20042;-88
2022/12/09 14:46:48;;;;;;;;;;;;;;;8.00;100.00;98289.81;6215132;23;19965;-88
2022/12/09 14:49:24;;;;;;;;;;;;;;;7.99;100.00;98293.38;6220866;23;20259;-87
2022/12/09 14:51:51;;;;;;;;;;;;;;;7.97;100.00;98298.75;6223503;23;20347;-85
2022/12/09 14:54:22;;;;;;;;;;;;;;;7.99;100.00;98306.56;6121378;23;19978;-87
2022/12/09 14:56:50;;;;;;;;;;;;;;;7.99;100.00;98307.44;6223060;23;19928;-87
2022/12/09 14:59:17;;;;;;;;;;;;;;;7.99;100.00;98306.56;6224012;23;19945;-88
2022/12/09 15:01:46;;;;;;;;;;;;;;;8.01;100.00;98312.63;6225934;23;20004;-85
2022/12/09 15:04:20;;;;;;;;;;;;;;;7.99;100.00;98304.81;6223246;23;19924;-86
2022/12/09 15:06:45;;;;;;;;;;;;;;;7.99;100.00;98307.44;6223610;23;20361;-89
2022/12/09 15:09:12;;;;;;;;;;;;;;;7.99;100.00;98311.84;6120842;23;19992;-87
2022/12/09 15:11:38;;;;;;;;;;;;;;;7.99;100.00;98311.84;6222015;23;19913;-87
2022/12/09 15:16:50;;;;;;;;;;;;;;;8.00;100.00;98321.47;6122092;23;19920;-89
2022/12/09 15:19:17;;;;;;;;;;;;;;;8.00;100.00;98317.03;6120908;23;19917;-88
2022/12/09 15:21:44;;;;;;;;;;;;;;;8.01;100.00;98315.25;6122763;23;19913;-88
2022/12/09 15:24:14;;;;;;;;;;;;;;;8.02;100.00;98314.31;6122178;23;19913;-90
2022/12/09 15:26:39;;;;;;;;;;;;;;;8.02;100.00;98321.38;6223367;23;19913;-85
2022/12/09 15:29:05;;;;;;;;;;;;;;;8.00;100.00;98316.19;6120991;23;20487;-88
2022/12/09 15:31:32;;;;;;;;;;;;;;;8.00;100.00;98324.94;6121869;22;19939;-86
2022/12/09 15:33:59;;;;;;;;;;;;;;;8.03;100.00;98328.38;6119823;23;19920;-86
2022/12/09 15:36:27;;;;;;;;;;;;;;;8.02;100.00;98322.22;6122233;22;19920;-87
2022/12/09 15:39:06;;;;;;;;;;;;;;;8.03;100.00;98329.22;6122179;23;20244;-88
2022/12/09 15:44:30;;;;;;;;;;;;;;;8.02;100.00;98327.50;6121175;23;20015;-86
2022/12/09 15:46:56;;;;;;;;;;;;;;;8.02;100.00;98327.50;6121131;23;19917;-84
2022/12/09 15:49:28;;;;;;;;;;;;;;;8.03;100.00;98328.38;6222568;23;19920;-89
2022/12/09 15:51:54;;;;;;;;;;;;;;;8.03;100.00;98331.84;6122191;23;19920;-87
2022/12/09 15:54:22;;;;;;;;;;;;;;;8.05;100.00;98337.03;6222830;23;19913;-86
2022/12/09 15:56:52;;;;;;;;;;;;;;;8.02;100.00;98345.97;6121188;22;19990;-91
2022/12/09 15:59:22;;;;;;;;;;;;;;;8.02;100.00;98335.41;6224151;23;20388;-86
2022/12/09 16:01:49;;;;;;;;;;;;;;;8.03;100.00;98342.41;6122319;23;19995;-88
2022/12/09 16:04:17;;;;;;;;;;;;;;;8.03;100.00;98339.75;6222765;23;20355;-86
2022/12/09 16:06:42;;;;;;;;;;;;;;;8.04;100.00;98346.75;6122453;23;19913;-87
2022/12/09 16:09:15;;;;;;;;;;;;;;;8.02;100.00;98340.69;6122705;23;19990;-88
2022/12/09 16:11:41;;;;;;;;;;;;;;;8.04;100.00;98341.47;6122813;23;19913;-86
2022/12/09 16:14:07;;;;;;;;;;;;;;;8.04;100.00;98338.84;6225518;23;19932;-92
2022/12/09 16:16:39;;;;;;;;;;;;;;;8.03;100.00;98337.13;6225198;23;19920;-91
2022/12/09 16:19:04;;;;;;;;;;;;;;;8.04;100.00;98343.25;6121374;22;19913;-89
2022/12/09 16:21:34;;;;;;;;;;;;;;;8.03;100.00;98339.75;6123422;22;19920;-91
2022/12/09 16:24:12;;;;;;;;;;;;;;;8.04;100.00;98346.75;6122823;23;20317;-94
2022/12/09 16:26:39;;;;;;;;;;;;;;;8.03;100.00;98339.75;6123313;23;19913;-90
2022/12/09 16:29:15;;;;;;;;;;;;;;;8.05;100.00;98337.88;6139895;23;19960;-91
2022/12/09 16:31:40;;;;;;;;;;;;;;;8.05;100.00;98343.16;6225442;23;19913;-93
2022/12/09 16:34:17;;;;;;;;;;;;;;;8.06;100.00;98339.59;6249685;22;19935;-93
2022/12/09 16:36:55;;;;;;;;;;;;;;;8.05;100.00;98342.31;6224869;23;19920;-90
2022/12/09 16:39:23;;;;;;;;;;;;;;;8.05;100.00;98337.88;6225419;23;19920;-86
2022/12/09 16:41:51;;;;;;;;;;;;;;;8.05;100.00;98348.44;6225020;23;19917;-91
2022/12/09 16:44:21;;;;;;;;;;;;;;;8.06;100.00;98347.50;6224339;23;19986;-89
2022/12/09 16:46:47;;;;;;;;;;;;;;;8.07;100.00;98340.44;6122199;23;19913;-88
2022/12/09 16:49:12;;;;;;;;;;;;;;;8.06;100.00;98344.88;6120070;23;19920;-87
2022/12/09 16:51:38;;;;;;;;;;;;;;;8.05;100.00;98353.72;6224440;23;20348;-87
2022/12/09 16:54:09;;;;;;;;;;;;;;;8.05;100.00;98356.34;6122018;23;19956;-86
2022/12/09 16:56:34;;;;;;;;;;;;;;;8.07;100.00;98346.56;6223743;23;19919;-85
2022/12/09 16:59:00;;;;;;;;;;;;;;;8.07;100.00;98348.34;6121652;23;19953;-88
2022/12/09 17:01:28;;;;;;;;;;;;;;;8.07;100.00;98354.47;6121885;23;20329;-90
2022/12/09 17:03:59;;;;;;;;;;;;;;;8.08;100.00;98355.34;6221849;23;20042;-89
2022/12/09 17:06:25;;;;;;;;;;;;;;;8.07;100.00;98354.47;6224003;23;19913;-88
2022/12/09 17:08:50;;;;;;;;;;;;;;;8.11;100.00;98369.22;6223957;23;20221;-87
2022/12/09 17:11:17;;;;;;;;;;;;;;;8.08;100.00;98363.25;6122302;23;20264;-87
2022/12/09 17:13:42;;;;;;;;;;;;;;;8.07;100.00;98361.53;6249513;22;20285;-88
2022/12/09 17:16:08;;;;;;;;;;;;;;;8.08;100.00;98364.09;6249891;22;19924;-84
2022/12/09 17:18:34;;;;;;;;;;;;;;;8.07;100.00;98365.03;6222965;23;20003;-90
2022/12/09 17:21:00;;;;;;;;;;;;;;;8.08;100.00;98368.53;6223859;23;19913;-87
2022/12/09 17:23:25;;;;;;;;;;;;;;;8.08;100.00;98364.09;6224191;23;20363;-91
2022/12/09 17:25:57;;;;;;;;;;;;;;;8.09;100.00;98373.72;6249013;22;19920;-84
2022/12/09 17:28:26;;;;;;;;;;;;;;;8.07;100.00;98372.94;6223206;23;19922;-90
2022/12/09 17:30:51;;;;;;;;;;;;;;;8.08;100.00;98372.00;6222327;23;19967;-89
2022/12/09 17:33:42;;;;;;;;;;;;;;;8.09;100.00;98375.50;6247231;22;20406;-84
2022/12/09 17:36:07;;;;;;;;;;;;;;;8.07;100.00;98378.22;6122175;22;19917;-91
2022/12/09 17:38:33;;;;;;;;;;;;;;;8.09;100.00;98378.13;6121452;23;20376;-88
2022/12/09 17:41:02;;;;;;;;;;;;;;;8.08;100.00;98381.72;6223216;23;19921;-90
2022/12/09 17:43:27;;;;;;;;;;;;;;;8.08;100.00;98374.66;6222683;23;20284;-88
2022/12/09 17:45:57;;;;;;;;;;;;;;;8.10;100.00;98375.41;6121431;23;19913;-90
2022/12/09 17:48:23;;;;;;;;;;;;;;;8.07;100.00;98388.75;6222308;23;19967;-87
2022/12/09 17:50:48;;;;;;;;;;;;;;;8.07;100.00;98378.22;6223630;23;19917;-94
2022/12/09 17:53:13;;;;;;;;;;;;;;;8.08;100.00;98394.91;6223332;23;20004;-87
2022/12/09 17:55:39;;;;;;;;;;;;;;;8.08;100.00;98387.84;6121289;22;19913;-88
2022/12/09 17:58:04;;;;;;;;;;;;;;;8.08;100.00;98397.56;6120019;23;19920;-92
2022/12/09 18:00:29;;;;;;;;;;;;;;;8.05;100.00;98395.91;6249239;22;19924;-88
2022/12/09 18:02:54;;;;;;;;;;;;;;;8.08;100.00;98393.13;6248827;22;20004;-87
2022/12/09 18:08:36;;;;;;;;;;;;;;;8.08;100.00;98410.75;6138288;22;20356;-86
2022/12/09 18:11:03;;;;;;;;;;;;;;;8.09;100.00;98401.88;6223706;23;19944;-88
2022/12/09 18:13:28;;;;;;;;;;;;;;;8.06;100.00;98413.47;6222839;23;19944;-88
2022/12/09 18:15:54;;;;;;;;;;;;;;;8.07;100.00;98412.50;6248573;22;19913;-90
2022/12/09 18:18:19;;;;;;;;;;;;;;;8.07;100.00;98415.16;6246991;22;19917;-89
2022/12/09 18:20:45;;;;;;;;;;;;;;;8.07;100.00;98412.50;6223250;23;19913;-87
2022/12/09 18:23:11;;;;;;;;;;;;;;;8.09;100.00;98412.44;6248156;22;19999;-88
2022/12/09 18:25:50;;;;;;;;;;;;;;;8.09;100.00;98413.28;6242409;22;19917;-90
2022/12/09 18:28:16;;;;;;;;;;;;;;;8.08;100.00;98408.09;6223189;23;19948;-89
2022/12/09 18:30:43;;;;;;;;;;;;;;;8.07;100.00;98415.16;6249511;22;19913;-89
2022/12/09 18:33:09;;;;;;;;;;;;;;;8.11;100.00;98426.41;6223489;23;19967;-85
2022/12/09 18:38:49;;;;;;;;;;;;;;;8.09;100.00;98413.28;6123766;23;19934;-88
2022/12/09 18:41:17;;;;;;;;;;;;;;;8.09;100.00;98418.56;6222824;23;19920;-89
2022/12/09 18:43:43;;;;;;;;;;;;;;;8.08;100.00;98419.50;6223197;23;20303;-87
2022/12/09 18:46:13;;;;;;;;;;;;;;;8.07;100.00;98420.41;6120171;23;19913;-86
2022/12/09 18:48:38;;;;;;;;;;;;;;;8.09;100.00;98422.97;6222011;23;19921;-86
2022/12/09 18:51:04;;;;;;;;;;;;;;;8.08;100.00;98426.56;6121542;23;19913;-90
2022/12/09 18:53:29;;;;;;;;;;;;;;;8.08;100.00;98427.41;6120479;23;19917;-88
2022/12/09 18:55:55;;;;;;;;;;;;;;;8.08;100.00;98427.41;6197453;23;19940;-88
2022/12/09 18:58:20;;;;;;;;;;;;;;;8.09;100.00;98425.63;6121056;22;19966;-88
2022/12/09 19:00:45;;;;;;;;;;;;;;;8.08;100.00;98424.78;6121198;23;20043;-90
2022/12/09 19:03:11;;;;;;;;;;;;;;;8.10;100.00;98422.91;6119749;23;19917;-87
2022/12/09 19:05:36;;;;;;;;;;;;;;;8.09;100.00;98423.84;6120474;23;19913;-87
2022/12/09 19:08:02;;;;;;;;;;;;;;;8.08;100.00;98429.22;6120825;23;20321;-85
2022/12/09 19:10:27;;;;;;;;;;;;;;;8.10;100.00;98430.81;6222569;23;20232;-90
2022/12/09 19:12:53;;;;;;;;;;;;;;;8.08;100.00;98430.06;6120329;23;20234;-89
2022/12/09 19:15:19;;;;;;;;;;;;;;;8.08;100.00;98430.06;6120797;23;20381;-90
2022/12/09 19:17:47;;;;;;;;;;;;;;;8.08;100.00;98427.41;6120633;23;19945;-88
2022/12/09 19:20:12;;;;;;;;;;;;;;;8.09;100.00;98428.25;6220720;23;19913;-86
2022/12/09 19:22:37;;;;;;;;;;;;;;;8.09;100.00;98428.25;6121107;23;19913;-89
2022/12/09 19:25:03;;;;;;;;;;;;;;;8.10;100.00;98433.44;6120183;23;19919;-88
2022/12/09 19:27:28;;;;;;;;;;;;;;;8.12;100.00;98436.88;6247815;22;20000;-88